createdAt,value
2019-04-01T00:00:56.625Z,1019.15
2019-04-01T00:01:56.611Z,1019.17
2019-04-01T00:02:56.604Z,1019.15
2019-04-01T00:03:56.596Z,1019.19
2019-04-01T00:04:56.595Z,1019.15
2019-04-01T00:05:56.585Z,1019.08
2019-04-01T00:06:56.593Z,1019.08
2019-04-01T00:07:56.772Z,1019.05
2019-04-01T00:08:56.589Z,1019.06
2019-04-01T00:09:56.564Z,1019.05
2019-04-01T00:10:56.561Z,1019.02
2019-04-01T00:11:56.551Z,1019.01
2019-04-01T00:12:56.537Z,1019.01
2019-04-01T00:13:56.742Z,1018.99
2019-04-01T00:14:56.530Z,1019.01
2019-04-01T00:15:56.519Z,1019.00
2019-04-01T00:16:56.527Z,1019.00
2019-04-01T00:17:56.511Z,1019.02
2019-04-01T00:19:03.101Z,1019.04
2019-04-01T00:19:56.497Z,1019.04
2019-04-01T00:20:56.693Z,1019.04
2019-04-01T00:21:56.502Z,1019.01
2019-04-01T00:22:56.527Z,1019.04
2019-04-01T00:23:56.488Z,1019.06
2019-04-01T00:24:56.693Z,1019.05
2019-04-01T00:25:56.665Z,1019.05
2019-04-01T00:26:56.456Z,1019.06
2019-04-01T00:27:56.456Z,1019.06
2019-04-01T00:28:56.440Z,1019.05
2019-04-01T00:29:56.443Z,1019.05
2019-04-01T00:30:56.441Z,1019.07
2019-04-01T00:31:56.416Z,1019.07
2019-04-01T00:32:56.436Z,1019.07
2019-04-01T00:33:56.405Z,1019.08
2019-04-01T00:34:56.406Z,1019.08
2019-04-01T00:35:56.397Z,1019.10
2019-04-01T00:36:56.389Z,1019.09
2019-04-01T00:37:56.376Z,1019.07
2019-04-01T00:38:56.574Z,1019.06
2019-04-01T00:39:56.373Z,1019.03
2019-04-01T00:40:56.357Z,1019.03
2019-04-01T00:41:56.588Z,1018.98
2019-04-01T00:42:56.371Z,1019.02
2019-04-01T00:43:56.348Z,1019.02
2019-04-01T00:44:56.336Z,1019.04
2019-04-01T00:45:56.357Z,1018.98
2019-04-01T00:46:56.352Z,1019.03
2019-04-01T00:47:56.325Z,1018.98
2019-04-01T00:48:56.510Z,1019.01
2019-04-01T00:49:56.334Z,1018.98
2019-04-01T00:50:56.294Z,1019.01
2019-04-01T00:51:56.288Z,1018.97
2019-04-01T00:52:56.293Z,1019.01
2019-04-01T00:53:56.292Z,1019.01
2019-04-01T00:54:56.480Z,1018.99
2019-04-01T00:55:56.268Z,1019.00
2019-04-01T00:56:56.268Z,1018.98
2019-04-01T00:57:56.250Z,1018.98
2019-04-01T00:58:56.239Z,1019.01
2019-04-01T00:59:56.441Z,1018.98
2019-04-01T01:00:56.431Z,1019.02
2019-04-01T01:01:56.223Z,1019.00
2019-04-01T01:02:56.252Z,1019.01
2019-04-01T01:03:56.212Z,1019.03
2019-04-01T01:04:56.213Z,1019.01
2019-04-01T01:05:56.273Z,1018.98
2019-04-01T01:06:56.406Z,1018.98
2019-04-01T01:07:56.404Z,1018.97
2019-04-01T01:08:56.200Z,1019.03
2019-04-01T01:09:56.388Z,1019.01
2019-04-01T01:10:56.163Z,1018.97
2019-04-01T01:11:56.187Z,1018.95
2019-04-01T01:12:56.152Z,1018.96
2019-04-01T01:13:56.359Z,1018.91
2019-04-01T01:14:56.341Z,1018.92
2019-04-01T01:15:56.133Z,1018.92
2019-04-01T01:16:56.128Z,1018.91
2019-04-01T01:17:56.123Z,1018.99
2019-04-01T01:18:56.113Z,1018.95
2019-04-01T01:19:56.100Z,1018.96
2019-04-01T01:20:56.097Z,1018.89
2019-04-01T01:21:56.089Z,1018.87
2019-04-01T01:22:56.096Z,1018.93
2019-04-01T01:23:56.071Z,1018.84
2019-04-01T01:24:56.067Z,1018.84
2019-04-01T01:25:56.054Z,1018.87
2019-04-01T01:26:56.065Z,1018.85
2019-04-01T01:27:56.050Z,1018.88
2019-04-01T01:28:56.035Z,1018.84
2019-04-01T01:29:56.232Z,1018.84
2019-04-01T01:30:56.028Z,1018.83
2019-04-01T01:31:56.033Z,1018.82
2019-04-01T01:32:56.217Z,1018.80
2019-04-01T01:33:56.008Z,1018.83
2019-04-01T01:34:56.007Z,1018.80
2019-04-01T01:35:56.017Z,1018.82
2019-04-01T01:36:56.050Z,1018.82
2019-04-01T01:37:55.983Z,1018.84
2019-04-01T01:38:56.199Z,1018.81
2019-04-01T01:39:55.991Z,1018.82
2019-04-01T01:40:55.966Z,1018.81
2019-04-01T01:41:55.958Z,1018.83
2019-04-01T01:42:55.941Z,1018.79
2019-04-01T01:43:55.930Z,1018.77
2019-04-01T01:44:55.931Z,1018.80
2019-04-01T01:45:55.918Z,1018.78
2019-04-01T01:46:55.916Z,1018.79
2019-04-01T01:47:55.907Z,1018.77
2019-04-01T01:48:55.905Z,1018.75
2019-04-01T01:49:55.892Z,1018.72
2019-04-01T01:50:55.878Z,1018.77
2019-04-01T01:51:56.081Z,1018.76
2019-04-01T01:52:55.866Z,1018.75
2019-04-01T01:53:56.068Z,1018.73
2019-04-01T01:54:55.862Z,1018.70
2019-04-01T01:55:55.858Z,1018.74
2019-04-01T01:56:55.838Z,1018.75
2019-04-01T01:57:56.034Z,1018.78
2019-04-01T01:58:56.034Z,1018.73
2019-04-01T01:59:55.842Z,1018.73
2019-04-01T02:00:56.018Z,1018.73
2019-04-01T02:01:55.810Z,1018.76
2019-04-01T02:02:55.801Z,1018.75
2019-04-01T02:03:55.997Z,1018.75
2019-04-01T02:04:55.782Z,1018.70
2019-04-01T02:05:55.801Z,1018.70
2019-04-01T02:06:55.968Z,1018.74
2019-04-01T02:07:55.764Z,1018.72
2019-04-01T02:08:55.768Z,1018.74
2019-04-01T02:09:55.955Z,1018.70
2019-04-01T02:10:55.741Z,1018.73
2019-04-01T02:11:55.938Z,1018.72
2019-04-01T02:12:55.927Z,1018.67
2019-04-01T02:13:55.723Z,1018.70
2019-04-01T02:14:55.726Z,1018.70
2019-04-01T02:15:55.722Z,1018.67
2019-04-01T02:16:55.697Z,1018.69
2019-04-01T02:17:55.697Z,1018.67
2019-04-01T02:18:55.684Z,1018.64
2019-04-01T02:19:55.687Z,1018.66
2019-04-01T02:20:55.873Z,1018.60
2019-04-01T02:21:55.672Z,1018.64
2019-04-01T02:22:55.651Z,1018.57
2019-04-01T02:23:55.648Z,1018.58
2019-04-01T02:24:55.653Z,1018.61
2019-04-01T02:25:55.631Z,1018.58
2019-04-01T02:26:55.632Z,1018.63
2019-04-01T02:27:55.621Z,1018.56
2019-04-01T02:28:55.811Z,1018.57
2019-04-01T02:29:55.810Z,1018.52
2019-04-01T02:30:55.608Z,1018.55
2019-04-01T02:31:55.610Z,1018.55
2019-04-01T02:32:55.590Z,1018.54
2019-04-01T02:33:55.582Z,1018.50
2019-04-01T02:34:55.578Z,1018.53
2019-04-01T02:35:55.563Z,1018.54
2019-04-01T02:36:55.565Z,1018.53
2019-04-01T02:37:55.783Z,1018.58
2019-04-01T02:38:55.564Z,1018.53
2019-04-01T02:39:55.540Z,1018.55
2019-04-01T02:40:55.530Z,1018.49
2019-04-01T02:41:55.522Z,1018.48
2019-04-01T02:42:55.528Z,1018.50
2019-04-01T02:43:55.508Z,1018.52
2019-04-01T02:44:55.501Z,1018.50
2019-04-01T02:45:55.494Z,1018.49
2019-04-01T02:46:55.501Z,1018.52
2019-04-01T02:47:55.495Z,1018.49
2019-04-01T02:48:55.475Z,1018.49
2019-04-01T02:49:55.471Z,1018.49
2019-04-01T02:50:55.463Z,1018.46
2019-04-01T02:51:55.452Z,1018.47
2019-04-01T02:52:55.440Z,1018.48
2019-04-01T02:53:55.432Z,1018.43
2019-04-01T02:54:55.429Z,1018.43
2019-04-01T02:55:55.424Z,1018.42
2019-04-01T02:56:55.492Z,1018.42
2019-04-01T02:57:55.451Z,1018.43
2019-04-01T02:58:55.404Z,1018.40
2019-04-01T02:59:55.390Z,1018.41
2019-04-01T03:00:55.414Z,1018.41
2019-04-01T03:01:55.375Z,1018.42
2019-04-01T03:02:55.390Z,1018.42
2019-04-01T03:03:55.359Z,1018.43
2019-04-01T03:04:55.363Z,1018.37
2019-04-01T03:05:55.372Z,1018.43
2019-04-01T03:06:55.359Z,1018.44
2019-04-01T03:07:55.337Z,1018.41
2019-04-01T03:08:55.326Z,1018.44
2019-04-01T03:09:55.313Z,1018.39
2019-04-01T03:10:55.327Z,1018.42
2019-04-01T03:11:55.310Z,1018.42
2019-04-01T03:12:55.305Z,1018.44
2019-04-01T03:13:55.290Z,1018.40
2019-04-01T03:14:55.298Z,1018.39
2019-04-01T03:15:55.478Z,1018.36
2019-04-01T03:16:55.303Z,1018.31
2019-04-01T03:17:55.257Z,1018.32
2019-04-01T03:18:55.256Z,1018.34
2019-04-01T03:19:55.262Z,1018.38
2019-04-01T03:20:55.235Z,1018.34
2019-04-01T03:21:55.230Z,1018.34
2019-04-01T03:22:55.425Z,1018.36
2019-04-01T03:23:55.228Z,1018.33
2019-04-01T03:24:55.209Z,1018.37
2019-04-01T03:25:55.218Z,1018.33
2019-04-01T03:26:55.204Z,1018.34
2019-04-01T03:27:55.207Z,1018.34
2019-04-01T03:28:55.180Z,1018.32
2019-04-01T03:29:55.396Z,1018.28
2019-04-01T03:30:55.369Z,1018.30
2019-04-01T03:31:55.202Z,1018.27
2019-04-01T03:32:55.223Z,1018.21
2019-04-01T03:33:55.151Z,1018.23
2019-04-01T03:34:55.129Z,1018.27
2019-04-01T03:35:55.137Z,1018.25
2019-04-01T03:36:55.136Z,1018.25
2019-04-01T03:37:55.123Z,1018.23
2019-04-01T03:38:55.314Z,1018.23
2019-04-01T03:39:55.109Z,1018.19
2019-04-01T03:40:55.095Z,1018.19
2019-04-01T03:41:55.292Z,1018.20
2019-04-01T03:42:55.115Z,1018.12
2019-04-01T03:43:55.212Z,1018.19
2019-04-01T03:44:55.636Z,1018.18
2019-04-01T03:45:55.254Z,1018.23
2019-04-01T03:46:55.065Z,1018.19
2019-04-01T03:47:55.045Z,1018.18
2019-04-01T03:48:55.037Z,1018.21
2019-04-01T03:49:55.054Z,1018.18
2019-04-01T03:50:55.016Z,1018.18
2019-04-01T03:51:55.004Z,1018.19
2019-04-01T03:52:55.006Z,1018.18
2019-04-01T03:53:55.199Z,1018.18
2019-04-01T03:54:55.191Z,1018.20
2019-04-01T03:55:54.985Z,1018.18
2019-04-01T03:56:54.968Z,1018.21
2019-04-01T03:57:54.961Z,1018.22
2019-04-01T03:58:54.955Z,1018.25
2019-04-01T03:59:54.946Z,1018.24
2019-04-01T04:00:54.939Z,1018.27
2019-04-01T04:01:54.933Z,1018.23
2019-04-01T04:02:54.928Z,1018.25
2019-04-01T04:03:54.913Z,1018.23
2019-04-01T04:04:54.924Z,1018.25
2019-04-01T04:05:54.924Z,1018.25
2019-04-01T04:06:54.902Z,1018.22
2019-04-01T04:07:55.098Z,1018.29
2019-04-01T04:08:54.890Z,1018.32
2019-04-01T04:09:54.873Z,1018.25
2019-04-01T04:10:54.878Z,1018.29
2019-04-01T04:11:54.875Z,1018.23
2019-04-01T04:12:54.865Z,1018.21
2019-04-01T04:13:54.879Z,1018.22
2019-04-01T04:14:54.842Z,1018.20
2019-04-01T04:15:54.838Z,1018.17
2019-04-01T04:16:54.821Z,1018.16
2019-04-01T04:17:54.851Z,1018.20
2019-04-01T04:18:54.808Z,1018.20
2019-04-01T04:19:54.804Z,1018.20
2019-04-01T04:20:54.787Z,1018.23
2019-04-01T04:21:54.814Z,1018.28
2019-04-01T04:22:54.814Z,1018.25
2019-04-01T04:23:54.769Z,1018.26
2019-04-01T04:24:54.968Z,1018.21
2019-04-01T04:25:54.769Z,1018.23
2019-04-01T04:26:54.768Z,1018.22
2019-04-01T04:27:54.753Z,1018.23
2019-04-01T04:28:54.733Z,1018.23
2019-04-01T04:29:54.935Z,1018.26
2019-04-01T04:30:54.724Z,1018.27
2019-04-01T04:31:54.718Z,1018.28
2019-04-01T04:32:54.906Z,1018.23
2019-04-01T04:33:54.929Z,1018.26
2019-04-01T04:34:57.190Z,1018.28
2019-04-01T04:35:54.697Z,1018.26
2019-04-01T04:36:54.670Z,1018.22
2019-04-01T04:37:54.876Z,1018.26
2019-04-01T04:38:54.661Z,1018.25
2019-04-01T04:39:54.852Z,1018.27
2019-04-01T04:40:54.643Z,1018.25
2019-04-01T04:41:54.642Z,1018.26
2019-04-01T04:42:54.643Z,1018.27
2019-04-01T04:43:54.833Z,1018.24
2019-04-01T04:44:54.623Z,1018.23
2019-04-01T04:45:54.605Z,1018.26
2019-04-01T04:46:54.814Z,1018.28
2019-04-01T04:47:54.598Z,1018.25
2019-04-01T04:48:54.792Z,1018.23
2019-04-01T04:49:54.571Z,1018.25
2019-04-01T04:50:54.568Z,1018.21
2019-04-01T04:51:54.560Z,1018.19
2019-04-01T04:52:54.578Z,1018.17
2019-04-01T04:53:54.544Z,1018.19
2019-04-01T04:54:54.743Z,1018.14
2019-04-01T04:55:54.734Z,1018.21
2019-04-01T04:56:54.522Z,1018.23
2019-04-01T04:57:54.718Z,1018.15
2019-04-01T04:58:54.539Z,1018.19
2019-04-01T04:59:54.549Z,1018.17
2019-04-01T05:00:54.503Z,1018.19
2019-04-01T05:01:54.507Z,1018.19
2019-04-01T05:02:54.511Z,1018.19
2019-04-01T05:03:54.472Z,1018.17
2019-04-01T05:04:54.462Z,1018.18
2019-04-01T05:05:54.453Z,1018.16
2019-04-01T05:06:54.462Z,1018.19
2019-04-01T05:07:54.442Z,1018.20
2019-04-01T05:08:54.430Z,1018.16
2019-04-01T05:09:54.637Z,1018.16
2019-04-01T05:10:54.408Z,1018.17
2019-04-01T05:11:54.407Z,1018.13
2019-04-01T05:12:54.395Z,1018.17
2019-04-01T05:13:54.397Z,1018.18
2019-04-01T05:14:54.395Z,1018.17
2019-04-01T05:15:54.391Z,1018.17
2019-04-01T05:16:54.365Z,1018.17
2019-04-01T05:17:54.351Z,1018.21
2019-04-01T05:18:54.360Z,1018.18
2019-04-01T05:19:54.364Z,1018.14
2019-04-01T05:20:54.356Z,1018.14
2019-04-01T05:21:54.331Z,1018.18
2019-04-01T05:22:54.331Z,1018.16
2019-04-01T05:23:54.538Z,1018.15
2019-04-01T05:24:54.523Z,1018.15
2019-04-01T05:25:54.306Z,1018.13
2019-04-01T05:26:54.498Z,1018.13
2019-04-01T05:27:54.276Z,1018.15
2019-04-01T05:28:54.265Z,1018.15
2019-04-01T05:29:54.287Z,1018.13
2019-04-01T05:30:54.249Z,1018.14
2019-04-01T05:31:54.242Z,1018.11
2019-04-01T05:32:54.235Z,1018.09
2019-04-01T05:33:55.618Z,1018.11
2019-04-01T05:34:54.216Z,1018.11
2019-04-01T05:35:54.219Z,1018.11
2019-04-01T05:36:54.203Z,1018.10
2019-04-01T05:37:54.210Z,1018.17
2019-04-01T05:38:54.194Z,1018.13
2019-04-01T05:39:54.381Z,1018.16
2019-04-01T05:40:54.376Z,1018.14
2019-04-01T05:41:54.166Z,1018.17
2019-04-01T05:42:54.361Z,1018.15
2019-04-01T05:43:54.150Z,1018.20
2019-04-01T05:44:54.137Z,1018.16
2019-04-01T05:45:54.127Z,1018.18
2019-04-01T05:46:54.118Z,1018.23
2019-04-01T05:47:54.113Z,1018.20
2019-04-01T05:48:54.105Z,1018.23
2019-04-01T05:49:54.093Z,1018.21
2019-04-01T05:50:54.105Z,1018.19
2019-04-01T05:51:54.288Z,1018.15
2019-04-01T05:52:54.082Z,1018.18
2019-04-01T05:53:54.071Z,1018.22
2019-04-01T05:54:54.266Z,1018.21
2019-04-01T05:55:54.049Z,1018.18
2019-04-01T05:56:54.065Z,1018.17
2019-04-01T05:57:54.058Z,1018.17
2019-04-01T05:58:54.040Z,1018.11
2019-04-01T05:59:54.020Z,1018.15
2019-04-01T06:00:54.037Z,1018.16
2019-04-01T06:01:54.221Z,1018.17
2019-04-01T06:02:54.009Z,1018.14
2019-04-01T06:03:53.987Z,1018.18
2019-04-01T06:04:53.990Z,1018.17
2019-04-01T06:05:53.969Z,1018.21
2019-04-01T06:06:53.976Z,1018.18
2019-04-01T06:07:53.959Z,1018.16
2019-04-01T06:08:53.945Z,1018.18
2019-04-01T06:09:53.954Z,1018.17
2019-04-01T06:10:54.142Z,1018.22
2019-04-01T06:11:54.134Z,1018.20
2019-04-01T06:12:54.133Z,1018.22
2019-04-01T06:13:53.925Z,1018.27
2019-04-01T06:14:53.905Z,1018.27
2019-04-01T06:15:53.898Z,1018.24
2019-04-01T06:16:53.884Z,1018.32
2019-04-01T06:17:53.885Z,1018.29
2019-04-01T06:18:53.872Z,1018.29
2019-04-01T06:19:53.864Z,1018.23
2019-04-01T06:20:53.864Z,1018.29
2019-04-01T06:21:54.082Z,1018.25
2019-04-01T06:22:53.877Z,1018.25
2019-04-01T06:23:53.838Z,1018.24
2019-04-01T06:24:53.829Z,1018.24
2019-04-01T06:25:53.821Z,1018.22
2019-04-01T06:26:53.811Z,1018.20
2019-04-01T06:27:53.828Z,1018.25
2019-04-01T06:28:53.807Z,1018.20
2019-04-01T06:29:53.804Z,1018.17
2019-04-01T06:30:53.987Z,1018.20
2019-04-01T06:31:53.773Z,1018.16
2019-04-01T06:32:53.776Z,1018.18
2019-04-01T06:33:53.773Z,1018.15
2019-04-01T06:34:53.760Z,1018.17
2019-04-01T06:35:53.743Z,1018.13
2019-04-01T06:36:53.737Z,1018.14
2019-04-01T06:37:53.744Z,1018.14
2019-04-01T06:38:53.719Z,1018.13
2019-04-01T06:39:53.724Z,1018.13
2019-04-01T06:40:53.710Z,1018.10
2019-04-01T06:41:53.718Z,1018.10
2019-04-01T06:42:53.704Z,1018.12
2019-04-01T06:43:53.689Z,1018.14
2019-04-01T06:44:53.682Z,1018.14
2019-04-01T06:45:53.680Z,1018.12
2019-04-01T06:46:53.677Z,1018.09
2019-04-01T06:47:53.658Z,1018.12
2019-04-01T06:48:53.646Z,1018.11
2019-04-01T06:49:53.641Z,1018.14
2019-04-01T06:50:53.854Z,1018.12
2019-04-01T06:51:53.631Z,1018.10
2019-04-01T06:52:53.619Z,1018.10
2019-04-01T06:53:53.616Z,1018.10
2019-04-01T06:54:53.612Z,1018.13
2019-04-01T06:55:53.814Z,1018.15
2019-04-01T06:56:53.591Z,1018.12
2019-04-01T06:57:53.587Z,1018.18
2019-04-01T06:58:53.793Z,1018.33
2019-04-01T06:59:53.573Z,1018.48
2019-04-01T07:00:53.564Z,1018.52
2019-04-01T07:01:53.767Z,1018.53
2019-04-01T07:02:53.560Z,1018.54
2019-04-01T07:03:53.548Z,1018.54
2019-04-01T07:04:53.536Z,1018.51
2019-04-01T07:05:53.741Z,1018.53
2019-04-01T07:06:53.524Z,1018.39
2019-04-01T07:07:53.517Z,1018.29
2019-04-01T07:08:53.712Z,1018.33
2019-04-01T07:09:53.539Z,1018.23
2019-04-01T07:10:53.498Z,1018.19
2019-04-01T07:11:53.505Z,1018.16
2019-04-01T07:12:53.708Z,1018.20
2019-04-01T07:13:53.470Z,1018.18
2019-04-01T07:14:53.467Z,1018.15
2019-04-01T07:15:53.465Z,1018.20
2019-04-01T07:16:53.455Z,1018.15
2019-04-01T07:17:53.676Z,1018.13
2019-04-01T07:18:53.451Z,1018.11
2019-04-01T07:19:53.432Z,1018.15
2019-04-01T07:20:53.430Z,1018.16
2019-04-01T07:21:54.603Z,1018.13
2019-04-01T07:22:53.442Z,1018.20
2019-04-01T07:23:53.410Z,1018.23
2019-04-01T07:24:53.609Z,1018.26
2019-04-01T07:25:53.399Z,1018.23
2019-04-01T07:26:53.405Z,1018.18
2019-04-01T07:27:53.385Z,1018.16
2019-04-01T07:28:53.404Z,1018.17
2019-04-01T07:29:53.585Z,1018.18
2019-04-01T07:30:53.453Z,1018.18
2019-04-01T07:31:53.359Z,1018.19
2019-04-01T07:32:53.359Z,1018.13
2019-04-01T07:33:53.562Z,1018.10
2019-04-01T07:34:53.341Z,1018.17
2019-04-01T07:35:53.348Z,1018.15
2019-04-01T07:36:53.327Z,1018.11
2019-04-01T07:37:53.331Z,1018.06
2019-04-01T07:38:53.337Z,1018.13
2019-04-01T07:39:53.334Z,1018.14
2019-04-01T07:40:53.336Z,1018.21
2019-04-01T07:41:53.308Z,1018.21
2019-04-01T07:42:53.499Z,1018.21
2019-04-01T07:43:53.286Z,1018.21
2019-04-01T07:44:53.299Z,1018.19
2019-04-01T07:45:53.300Z,1018.12
2019-04-01T07:46:53.284Z,1018.13
2019-04-01T07:47:53.270Z,1018.11
2019-04-01T07:48:53.257Z,1018.13
2019-04-01T07:49:53.467Z,1018.12
2019-04-01T07:50:53.268Z,1018.12
2019-04-01T07:51:53.248Z,1018.19
2019-04-01T07:52:55.438Z,1018.19
2019-04-01T07:53:53.235Z,1018.17
2019-04-01T07:54:53.229Z,1018.18
2019-04-01T07:55:53.224Z,1018.22
2019-04-01T07:56:53.216Z,1018.19
2019-04-01T07:57:53.212Z,1018.15
2019-04-01T07:58:53.209Z,1018.12
2019-04-01T07:59:56.692Z,1018.09
2019-04-01T08:00:53.212Z,1018.09
2019-04-01T08:01:53.194Z,1018.18
2019-04-01T08:02:53.190Z,1018.28
2019-04-01T08:03:53.180Z,1018.33
2019-04-01T08:04:53.193Z,1018.41
2019-04-01T08:05:53.175Z,1018.41
2019-04-01T08:06:53.177Z,1018.38
2019-04-01T08:07:53.161Z,1018.34
2019-04-01T08:08:53.178Z,1018.33
2019-04-01T08:09:53.177Z,1018.23
2019-04-01T08:10:53.172Z,1018.16
2019-04-01T08:11:53.184Z,1018.20
2019-04-01T08:12:53.150Z,1018.16
2019-04-01T08:13:53.163Z,1018.26
2019-04-01T08:14:53.136Z,1018.39
2019-04-01T08:15:53.149Z,1018.40
2019-04-01T08:16:53.128Z,1018.40
2019-04-01T08:17:53.146Z,1018.37
2019-04-01T08:18:53.125Z,1018.37
2019-04-01T08:19:53.122Z,1018.27
2019-04-01T08:20:53.123Z,1018.35
2019-04-01T08:21:53.126Z,1018.31
2019-04-01T08:22:53.319Z,1018.35
2019-04-01T08:23:53.310Z,1018.33
2019-04-01T08:24:53.118Z,1018.32
2019-04-01T08:25:53.115Z,1018.22
2019-04-01T08:26:53.112Z,1018.18
2019-04-01T08:27:53.304Z,1018.27
2019-04-01T08:28:53.091Z,1018.21
2019-04-01T08:29:53.089Z,1018.21
2019-04-01T08:30:53.100Z,1018.16
2019-04-01T08:31:53.305Z,1018.26
2019-04-01T08:32:53.114Z,1018.35
2019-04-01T08:33:53.091Z,1018.32
2019-04-01T08:34:53.086Z,1018.44
2019-04-01T08:35:53.277Z,1018.41
2019-04-01T08:36:53.288Z,1018.36
2019-04-01T08:37:53.285Z,1018.27
2019-04-01T08:38:55.405Z,1018.19
2019-04-01T08:39:53.067Z,1018.15
2019-04-01T08:40:53.270Z,1018.10
2019-04-01T08:41:53.059Z,1018.03
2019-04-01T08:42:53.055Z,1017.98
2019-04-01T08:43:53.062Z,1017.99
2019-04-01T08:44:53.048Z,1018.00
2019-04-01T08:45:53.061Z,1017.97
2019-04-01T08:46:53.070Z,1017.96
2019-04-01T08:47:53.052Z,1017.93
2019-04-01T08:48:53.052Z,1017.92
2019-04-01T08:49:53.256Z,1017.90
2019-04-01T08:50:53.039Z,1017.91
2019-04-01T08:51:53.036Z,1017.89
2019-04-01T08:52:53.034Z,1017.84
2019-04-01T08:53:53.242Z,1017.81
2019-04-01T08:54:53.235Z,1017.78
2019-04-01T08:56:00.652Z,1017.71
2019-04-01T08:56:53.019Z,1017.68
2019-04-01T08:57:53.014Z,1017.68
2019-04-01T08:58:53.010Z,1017.66
2019-04-01T08:59:56.116Z,1017.62
2019-04-01T09:00:53.210Z,1017.65
2019-04-01T09:01:53.206Z,1017.64
2019-04-01T09:02:52.998Z,1017.65
2019-04-01T09:03:52.992Z,1017.58
2019-04-01T09:04:52.999Z,1017.62
2019-04-01T09:05:53.070Z,1017.58
2019-04-01T09:06:52.989Z,1017.55
2019-04-01T09:07:52.983Z,1017.57
2019-04-01T09:08:52.995Z,1017.54
2019-04-01T09:09:52.969Z,1017.51
2019-04-01T09:10:52.982Z,1017.51
2019-04-01T09:11:52.962Z,1017.50
2019-04-01T09:12:53.188Z,1017.49
2019-04-01T09:13:52.987Z,1017.47
2019-04-01T09:14:52.959Z,1017.45
2019-04-01T09:15:52.954Z,1017.46
2019-04-01T09:16:52.948Z,1017.43
2019-04-01T09:17:52.969Z,1017.42
2019-04-01T09:18:52.937Z,1017.41
2019-04-01T09:19:53.142Z,1017.40
2019-04-01T09:20:52.944Z,1017.42
2019-04-01T09:21:52.954Z,1017.41
2019-04-01T09:22:52.939Z,1017.42
2019-04-01T09:23:52.947Z,1017.41
2019-04-01T09:24:52.916Z,1017.40
2019-04-01T09:25:52.910Z,1017.35
2019-04-01T09:26:53.124Z,1017.41
2019-04-01T09:27:52.935Z,1017.35
2019-04-01T09:28:52.911Z,1017.38
2019-04-01T09:29:52.906Z,1017.36
2019-04-01T09:30:52.904Z,1017.37
2019-04-01T09:31:52.886Z,1017.35
2019-04-01T09:32:52.890Z,1017.36
2019-04-01T09:33:52.895Z,1017.38
2019-04-01T09:34:52.882Z,1017.33
2019-04-01T09:35:52.887Z,1017.34
2019-04-01T09:36:52.862Z,1017.30
2019-04-01T09:37:52.867Z,1017.25
2019-04-01T09:38:52.877Z,1017.25
2019-04-01T09:39:52.857Z,1017.24
2019-04-01T09:40:52.854Z,1017.21
2019-04-01T09:41:52.851Z,1017.22
2019-04-01T09:42:52.865Z,1017.18
2019-04-01T09:43:52.857Z,1017.21
2019-04-01T09:44:52.833Z,1017.19
2019-04-01T09:45:52.839Z,1017.15
2019-04-01T09:46:52.836Z,1017.11
2019-04-01T09:47:52.822Z,1017.11
2019-04-01T09:48:52.822Z,1017.15
2019-04-01T09:49:52.828Z,1017.13
2019-04-01T09:50:52.814Z,1017.13
2019-04-01T09:51:52.819Z,1017.14
2019-04-01T09:52:52.803Z,1017.13
2019-04-01T09:53:52.822Z,1017.12
2019-04-01T09:54:52.807Z,1017.13
2019-04-01T09:55:52.805Z,1017.14
2019-04-01T09:56:52.787Z,1017.13
2019-04-01T09:57:52.794Z,1017.13
2019-04-01T09:58:52.778Z,1017.10
2019-04-01T09:59:52.779Z,1017.11
2019-04-01T10:00:53.360Z,1017.08
2019-04-01T10:01:52.763Z,1017.07
2019-04-01T10:02:52.768Z,1017.05
2019-04-01T10:03:52.768Z,1017.00
2019-04-01T10:04:52.758Z,1017.01
2019-04-01T10:05:52.765Z,1016.96
2019-04-01T10:06:52.751Z,1016.97
2019-04-01T10:07:52.945Z,1016.95
2019-04-01T10:08:52.937Z,1016.92
2019-04-01T10:09:52.739Z,1016.85
2019-04-01T10:10:52.763Z,1016.89
2019-04-01T10:11:52.943Z,1016.88
2019-04-01T10:12:52.736Z,1016.85
2019-04-01T10:13:52.728Z,1016.89
2019-04-01T10:14:52.917Z,1016.85
2019-04-01T10:15:52.916Z,1016.81
2019-04-01T10:16:52.907Z,1016.76
2019-04-01T10:17:52.724Z,1016.77
2019-04-01T10:18:52.702Z,1016.74
2019-04-01T10:19:52.694Z,1016.74
2019-04-01T10:20:52.688Z,1016.74
2019-04-01T10:21:52.685Z,1016.65
2019-04-01T10:22:52.686Z,1016.66
2019-04-01T10:23:52.690Z,1016.65
2019-04-01T10:24:52.685Z,1016.62
2019-04-01T10:25:52.679Z,1016.60
2019-04-01T10:26:52.683Z,1016.59
2019-04-01T10:27:52.662Z,1016.53
2019-04-01T10:28:52.768Z,1016.52
2019-04-01T10:29:52.665Z,1016.53
2019-04-01T10:30:52.646Z,1016.49
2019-04-01T10:31:52.650Z,1016.50
2019-04-01T10:32:52.669Z,1016.49
2019-04-01T10:33:52.652Z,1016.47
2019-04-01T10:34:52.841Z,1016.47
2019-04-01T10:35:52.837Z,1016.45
2019-04-01T10:36:52.839Z,1016.47
2019-04-01T10:37:52.627Z,1016.47
2019-04-01T10:38:52.616Z,1016.46
2019-04-01T10:39:52.727Z,1016.44
2019-04-01T10:40:52.614Z,1016.42
2019-04-01T10:41:52.817Z,1016.43
2019-04-01T10:42:52.617Z,1016.41
2019-04-01T10:43:52.607Z,1016.37
2019-04-01T10:44:52.592Z,1016.33
2019-04-01T10:45:52.793Z,1016.35
2019-04-01T10:46:52.593Z,1016.28
2019-04-01T10:47:52.669Z,1016.29
2019-04-01T10:48:52.625Z,1016.29
2019-04-01T10:49:52.829Z,1016.30
2019-04-01T10:50:52.663Z,1016.26
2019-04-01T10:51:52.667Z,1016.22
2019-04-01T10:52:52.585Z,1016.21
2019-04-01T10:53:52.638Z,1016.22
2019-04-01T10:54:52.609Z,1016.18
2019-04-01T10:55:52.595Z,1016.17
2019-04-01T10:56:52.620Z,1016.18
2019-04-01T10:57:54.053Z,1016.14
2019-04-01T10:58:52.763Z,1016.15
2019-04-01T10:59:52.536Z,1016.14
2019-04-01T11:00:52.590Z,1016.12
2019-04-01T11:01:52.547Z,1016.09
2019-04-01T11:02:52.541Z,1016.09
2019-04-01T11:03:52.684Z,1016.05
2019-04-01T11:04:52.569Z,1016.05
2019-04-01T11:05:52.586Z,1016.07
2019-04-01T11:06:52.521Z,1016.02
2019-04-01T11:07:52.519Z,1016.04
2019-04-01T11:08:52.539Z,1016.00
2019-04-01T11:09:52.494Z,1015.95
2019-04-01T11:10:52.492Z,1015.96
2019-04-01T11:11:52.506Z,1015.96
2019-04-01T11:12:53.878Z,1015.92
2019-04-01T11:13:53.904Z,1015.91
2019-04-01T11:14:52.472Z,1015.89
2019-04-01T11:15:52.472Z,1015.91
2019-04-01T11:16:52.485Z,1015.92
2019-04-01T11:17:52.881Z,1015.90
2019-04-01T11:18:52.665Z,1015.90
2019-04-01T11:19:52.670Z,1015.90
2019-04-01T11:20:56.542Z,1015.85
2019-04-01T11:21:52.746Z,1015.84
2019-04-01T11:22:52.700Z,1015.85
2019-04-01T11:23:52.442Z,1015.84
2019-04-01T11:24:52.433Z,1015.84
2019-04-01T11:25:52.427Z,1015.82
2019-04-01T11:26:52.450Z,1015.84
2019-04-01T11:27:52.429Z,1015.82
2019-04-01T11:28:52.419Z,1015.78
2019-04-01T11:29:52.416Z,1015.78
2019-04-01T11:30:52.454Z,1015.78
2019-04-01T11:31:52.434Z,1015.80
2019-04-01T11:32:52.447Z,1015.77
2019-04-01T11:33:52.420Z,1015.75
2019-04-01T11:34:55.864Z,1015.74
2019-04-01T11:35:52.394Z,1015.74
2019-04-01T11:36:52.391Z,1015.73
2019-04-01T11:37:52.438Z,1015.73
2019-04-01T11:38:52.410Z,1015.67
2019-04-01T11:39:52.417Z,1015.66
2019-04-01T11:40:52.376Z,1015.65
2019-04-01T11:41:52.425Z,1015.68
2019-04-01T11:42:53.075Z,1015.67
2019-04-01T11:43:52.717Z,1015.63
2019-04-01T11:44:52.648Z,1015.64
2019-04-01T11:45:53.231Z,1015.64
2019-04-01T11:46:53.406Z,1015.59
2019-04-01T11:47:52.349Z,1015.61
2019-04-01T11:48:52.378Z,1015.61
2019-04-01T11:49:52.544Z,1015.60
2019-04-01T11:50:53.816Z,1015.56
2019-04-01T11:51:52.545Z,1015.57
2019-04-01T11:52:52.391Z,1015.55
2019-04-01T11:53:52.307Z,1015.57
2019-04-01T11:54:52.318Z,1015.52
2019-04-01T11:55:52.306Z,1015.51
2019-04-01T11:56:52.506Z,1015.46
2019-04-01T11:57:52.316Z,1015.48
2019-04-01T11:58:52.286Z,1015.47
2019-04-01T11:59:52.487Z,1015.47
2019-04-01T12:00:52.286Z,1015.37
2019-04-01T12:01:52.289Z,1015.31
2019-04-01T12:02:52.279Z,1015.33
2019-04-01T12:03:52.274Z,1015.41
2019-04-01T12:04:52.734Z,1015.35
2019-04-01T12:05:52.671Z,1015.33